sensor_id;sensor_type;location;lat;lon;timestamp;P1;durP1;ratioP1;P2;durP2;ratioP2
21800;SDS011;11062;51.164;16.924;2023-04-06T00:00:21;64.05;;;27.83;;
21800;SDS011;11062;51.164;16.924;2023-04-06T00:02:48;56.40;;;28.35;;
21800;SDS011;11062;51.164;16.924;2023-04-06T00:05:14;61.25;;;27.13;;
21800;SDS011;11062;51.164;16.924;2023-04-06T00:07:43;59.95;;;26.50;;
21800;SDS011;11062;51.164;16.924;2023-04-06T00:10:09;55.40;;;27.08;;
21800;SDS011;11062;51.164;16.924;2023-04-06T00:12:37;56.97;;;26.80;;
21800;SDS011;11062;51.164;16.924;2023-04-06T00:15:03;58.45;;;26.92;;
21800;SDS011;11062;51.164;16.924;2023-04-06T00:17:32;52.35;;;24.50;;
21800;SDS011;11062;51.164;16.924;2023-04-06T00:19:58;53.00;;;25.25;;
21800;SDS011;11062;51.164;16.924;2023-04-06T00:22:24;50.45;;;24.58;;
21800;SDS011;11062;51.164;16.924;2023-04-06T00:24:50;54.60;;;25.90;;
21800;SDS011;11062;51.164;16.924;2023-04-06T00:27:16;54.45;;;27.13;;
21800;SDS011;11062;51.164;16.924;2023-04-06T00:29:43;52.17;;;24.88;;
21800;SDS011;11062;51.164;16.924;2023-04-06T00:32:10;51.47;;;26.13;;
21800;SDS011;11062;51.164;16.924;2023-04-06T00:34:36;53.25;;;25.88;;
21800;SDS011;11062;51.164;16.924;2023-04-06T00:37:02;52.17;;;25.73;;
21800;SDS011;11062;51.164;16.924;2023-04-06T00:39:28;59.17;;;27.77;;
21800;SDS011;11062;51.164;16.924;2023-04-06T00:41:54;62.65;;;28.23;;
21800;SDS011;11062;51.164;16.924;2023-04-06T00:44:21;55.38;;;26.85;;
21800;SDS011;11062;51.164;16.924;2023-04-06T00:46:48;58.67;;;26.70;;
21800;SDS011;11062;51.164;16.924;2023-04-06T00:49:17;53.35;;;26.05;;
21800;SDS011;11062;51.164;16.924;2023-04-06T00:51:43;61.30;;;26.63;;
21800;SDS011;11062;51.164;16.924;2023-04-06T00:54:09;56.35;;;25.83;;
21800;SDS011;11062;51.164;16.924;2023-04-06T00:56:38;50.88;;;24.35;;
21800;SDS011;11062;51.164;16.924;2023-04-06T00:59:07;52.33;;;24.23;;
21800;SDS011;11062;51.164;16.924;2023-04-06T01:01:36;50.85;;;23.77;;
21800;SDS011;11062;51.164;16.924;2023-04-06T01:04:02;49.78;;;23.75;;
21800;SDS011;11062;51.164;16.924;2023-04-06T01:06:28;44.75;;;24.30;;
21800;SDS011;11062;51.164;16.924;2023-04-06T01:08:55;54.60;;;25.67;;
21800;SDS011;11062;51.164;16.924;2023-04-06T01:11:27;50.83;;;24.85;;
21800;SDS011;11062;51.164;16.924;2023-04-06T01:13:56;44.58;;;22.95;;
21800;SDS011;11062;51.164;16.924;2023-04-06T01:16:22;38.08;;;21.38;;
21800;SDS011;11062;51.164;16.924;2023-04-06T01:18:49;44.38;;;23.55;;
21800;SDS011;11062;51.164;16.924;2023-04-06T01:21:15;54.88;;;24.38;;
21800;SDS011;11062;51.164;16.924;2023-04-06T01:23:44;51.85;;;23.38;;
21800;SDS011;11062;51.164;16.924;2023-04-06T01:26:13;47.65;;;23.23;;
21800;SDS011;11062;51.164;16.924;2023-04-06T01:28:39;50.90;;;24.77;;
21800;SDS011;11062;51.164;16.924;2023-04-06T01:31:08;43.38;;;22.42;;
21800;SDS011;11062;51.164;16.924;2023-04-06T01:33:34;44.20;;;22.60;;
21800;SDS011;11062;51.164;16.924;2023-04-06T01:36:01;43.97;;;21.80;;
21800;SDS011;11062;51.164;16.924;2023-04-06T01:38:27;51.03;;;22.42;;
21800;SDS011;11062;51.164;16.924;2023-04-06T01:40:53;46.33;;;22.42;;
21800;SDS011;11062;51.164;16.924;2023-04-06T01:43:22;48.28;;;23.17;;
21800;SDS011;11062;51.164;16.924;2023-04-06T01:45:48;41.35;;;21.30;;
21800;SDS011;11062;51.164;16.924;2023-04-06T01:48:14;43.70;;;21.60;;
21800;SDS011;11062;51.164;16.924;2023-04-06T01:50:40;49.22;;;23.27;;
21800;SDS011;11062;51.164;16.924;2023-04-06T01:53:06;51.22;;;21.88;;
21800;SDS011;11062;51.164;16.924;2023-04-06T01:55:32;48.13;;;22.30;;
21800;SDS011;11062;51.164;16.924;2023-04-06T01:58:01;50.45;;;23.80;;
21800;SDS011;11062;51.164;16.924;2023-04-06T02:00:29;51.15;;;24.90;;
21800;SDS011;11062;51.164;16.924;2023-04-06T02:02:55;49.08;;;23.70;;
21800;SDS011;11062;51.164;16.924;2023-04-06T02:05:21;49.00;;;23.50;;
21800;SDS011;11062;51.164;16.924;2023-04-06T02:07:47;52.78;;;23.38;;
21800;SDS011;11062;51.164;16.924;2023-04-06T02:10:14;50.38;;;22.95;;
21800;SDS011;11062;51.164;16.924;2023-04-06T02:12:46;48.05;;;22.80;;
21800;SDS011;11062;51.164;16.924;2023-04-06T02:15:12;45.53;;;22.13;;
21800;SDS011;11062;51.164;16.924;2023-04-06T02:17:38;47.35;;;21.85;;
21800;SDS011;11062;51.164;16.924;2023-04-06T02:20:05;37.30;;;21.08;;
21800;SDS011;11062;51.164;16.924;2023-04-06T02:22:31;45.70;;;22.08;;
21800;SDS011;11062;51.164;16.924;2023-04-06T02:25:00;42.08;;;21.75;;
21800;SDS011;11062;51.164;16.924;2023-04-06T02:27:26;39.88;;;20.60;;
21800;SDS011;11062;51.164;16.924;2023-04-06T02:29:55;50.13;;;21.98;;
21800;SDS011;11062;51.164;16.924;2023-04-06T02:32:21;47.10;;;21.05;;
21800;SDS011;11062;51.164;16.924;2023-04-06T02:34:47;41.72;;;20.98;;
21800;SDS011;11062;51.164;16.924;2023-04-06T02:37:13;44.88;;;20.27;;
21800;SDS011;11062;51.164;16.924;2023-04-06T02:39:39;50.30;;;24.83;;
21800;SDS011;11062;51.164;16.924;2023-04-06T02:42:06;69.10;;;29.90;;
21800;SDS011;11062;51.164;16.924;2023-04-06T02:44:32;64.63;;;29.38;;
21800;SDS011;11062;51.164;16.924;2023-04-06T02:46:58;60.42;;;28.83;;
21800;SDS011;11062;51.164;16.924;2023-04-06T02:49:25;64.88;;;28.67;;
21800;SDS011;11062;51.164;16.924;2023-04-06T02:51:51;56.25;;;25.45;;
21800;SDS011;11062;51.164;16.924;2023-04-06T02:54:17;52.03;;;24.30;;
21800;SDS011;11062;51.164;16.924;2023-04-06T02:56:43;48.13;;;23.98;;
21800;SDS011;11062;51.164;16.924;2023-04-06T02:59:09;46.15;;;22.60;;
21800;SDS011;11062;51.164;16.924;2023-04-06T03:01:38;47.55;;;23.83;;
21800;SDS011;11062;51.164;16.924;2023-04-06T03:04:04;46.88;;;23.92;;
21800;SDS011;11062;51.164;16.924;2023-04-06T03:06:30;54.35;;;24.17;;
21800;SDS011;11062;51.164;16.924;2023-04-06T03:08:56;53.25;;;23.05;;
21800;SDS011;11062;51.164;16.924;2023-04-06T03:11:22;49.58;;;24.20;;
21800;SDS011;11062;51.164;16.924;2023-04-06T03:13:51;48.05;;;23.38;;
21800;SDS011;11062;51.164;16.924;2023-04-06T03:16:17;49.53;;;23.10;;
21800;SDS011;11062;51.164;16.924;2023-04-06T03:18:43;45.95;;;23.85;;
21800;SDS011;11062;51.164;16.924;2023-04-06T03:21:10;48.58;;;23.73;;
21800;SDS011;11062;51.164;16.924;2023-04-06T03:23:36;52.03;;;24.15;;
21800;SDS011;11062;51.164;16.924;2023-04-06T03:26:02;45.10;;;22.33;;
21800;SDS011;11062;51.164;16.924;2023-04-06T03:28:30;41.58;;;23.60;;
21800;SDS011;11062;51.164;16.924;2023-04-06T03:30:56;49.92;;;23.98;;
21800;SDS011;11062;51.164;16.924;2023-04-06T03:33:22;48.55;;;23.95;;
21800;SDS011;11062;51.164;16.924;2023-04-06T03:35:48;54.55;;;24.70;;
21800;SDS011;11062;51.164;16.924;2023-04-06T03:38:17;49.70;;;24.17;;
21800;SDS011;11062;51.164;16.924;2023-04-06T03:40:43;51.17;;;23.15;;
21800;SDS011;11062;51.164;16.924;2023-04-06T03:43:09;50.35;;;24.35;;
21800;SDS011;11062;51.164;16.924;2023-04-06T03:45:37;45.70;;;22.67;;
21800;SDS011;11062;51.164;16.924;2023-04-06T03:48:04;50.95;;;23.98;;
21800;SDS011;11062;51.164;16.924;2023-04-06T03:50:32;51.17;;;23.15;;
21800;SDS011;11062;51.164;16.924;2023-04-06T03:53:01;43.30;;;22.10;;
21800;SDS011;11062;51.164;16.924;2023-04-06T03:55:30;42.25;;;21.55;;
21800;SDS011;11062;51.164;16.924;2023-04-06T03:57:56;51.63;;;23.00;;
21800;SDS011;11062;51.164;16.924;2023-04-06T04:00:39;44.67;;;23.67;;
21800;SDS011;11062;51.164;16.924;2023-04-06T04:03:08;48.92;;;22.88;;
21800;SDS011;11062;51.164;16.924;2023-04-06T04:05:34;45.92;;;22.60;;
21800;SDS011;11062;51.164;16.924;2023-04-06T04:08:03;51.05;;;24.17;;
21800;SDS011;11062;51.164;16.924;2023-04-06T04:10:29;46.33;;;24.20;;
21800;SDS011;11062;51.164;16.924;2023-04-06T04:12:57;44.67;;;24.38;;
21800;SDS011;11062;51.164;16.924;2023-04-06T04:15:23;46.42;;;25.10;;
21800;SDS011;11062;51.164;16.924;2023-04-06T04:17:51;60.45;;;27.88;;
21800;SDS011;11062;51.164;16.924;2023-04-06T04:20:17;58.63;;;29.27;;
21800;SDS011;11062;51.164;16.924;2023-04-06T04:22:43;59.45;;;28.73;;
21800;SDS011;11062;51.164;16.924;2023-04-06T04:25:09;62.63;;;29.70;;
21800;SDS011;11062;51.164;16.924;2023-04-06T04:27:36;57.25;;;27.27;;
21800;SDS011;11062;51.164;16.924;2023-04-06T04:30:02;61.80;;;30.77;;
21800;SDS011;11062;51.164;16.924;2023-04-06T04:32:28;55.53;;;27.92;;
21800;SDS011;11062;51.164;16.924;2023-04-06T04:34:56;60.08;;;27.67;;
21800;SDS011;11062;51.164;16.924;2023-04-06T04:37:23;57.45;;;27.10;;
21800;SDS011;11062;51.164;16.924;2023-04-06T04:39:49;62.78;;;27.52;;
21800;SDS011;11062;51.164;16.924;2023-04-06T04:42:15;58.95;;;28.73;;
21800;SDS011;11062;51.164;16.924;2023-04-06T04:44:44;58.47;;;28.52;;
21800;SDS011;11062;51.164;16.924;2023-04-06T04:47:10;53.50;;;25.65;;
21800;SDS011;11062;51.164;16.924;2023-04-06T04:49:36;58.75;;;28.17;;
21800;SDS011;11062;51.164;16.924;2023-04-06T04:52:02;63.42;;;29.73;;
21800;SDS011;11062;51.164;16.924;2023-04-06T04:54:28;64.78;;;32.03;;
21800;SDS011;11062;51.164;16.924;2023-04-06T04:56:57;73.35;;;32.00;;
21800;SDS011;11062;51.164;16.924;2023-04-06T04:59:27;58.72;;;29.90;;
21800;SDS011;11062;51.164;16.924;2023-04-06T05:01:56;63.85;;;31.63;;
21800;SDS011;11062;51.164;16.924;2023-04-06T05:04:22;89.90;;;30.90;;
21800;SDS011;11062;51.164;16.924;2023-04-06T05:07:01;62.85;;;29.25;;
21800;SDS011;11062;51.164;16.924;2023-04-06T05:10:15;59.83;;;28.92;;
21800;SDS011;11062;51.164;16.924;2023-04-06T05:12:44;68.28;;;29.05;;
21800;SDS011;11062;51.164;16.924;2023-04-06T05:15:11;59.65;;;29.10;;
21800;SDS011;11062;51.164;16.924;2023-04-06T05:28:02;66.32;;;31.13;;
21800;SDS011;11062;51.164;16.924;2023-04-06T05:31:39;67.15;;;31.48;;
21800;SDS011;11062;51.164;16.924;2023-04-06T05:34:48;59.92;;;29.23;;
21800;SDS011;11062;51.164;16.924;2023-04-06T05:37:18;53.83;;;28.58;;
21800;SDS011;11062;51.164;16.924;2023-04-06T05:39:48;65.10;;;29.60;;
21800;SDS011;11062;51.164;16.924;2023-04-06T05:42:19;59.85;;;27.77;;
21800;SDS011;11062;51.164;16.924;2023-04-06T05:44:46;51.78;;;27.13;;
21800;SDS011;11062;51.164;16.924;2023-04-06T05:47:12;47.83;;;26.35;;
21800;SDS011;11062;51.164;16.924;2023-04-06T05:49:44;51.90;;;28.20;;
21800;SDS011;11062;51.164;16.924;2023-04-06T05:52:10;55.22;;;28.10;;
21800;SDS011;11062;51.164;16.924;2023-04-06T05:54:39;58.88;;;28.20;;
21800;SDS011;11062;51.164;16.924;2023-04-06T05:57:05;46.45;;;26.98;;
21800;SDS011;11062;51.164;16.924;2023-04-06T05:59:31;63.47;;;28.52;;
21800;SDS011;11062;51.164;16.924;2023-04-06T06:01:57;48.83;;;26.95;;
21800;SDS011;11062;51.164;16.924;2023-04-06T06:04:23;52.45;;;27.65;;
21800;SDS011;11062;51.164;16.924;2023-04-06T06:06:48;53.78;;;28.73;;
21800;SDS011;11062;51.164;16.924;2023-04-06T06:09:14;54.03;;;27.77;;
21800;SDS011;11062;51.164;16.924;2023-04-06T06:11:40;48.13;;;26.70;;
21800;SDS011;11062;51.164;16.924;2023-04-06T06:14:12;53.33;;;28.40;;
21800;SDS011;11062;51.164;16.924;2023-04-06T06:16:38;47.25;;;26.95;;
21800;SDS011;11062;51.164;16.924;2023-04-06T06:19:12;53.42;;;28.10;;
21800;SDS011;11062;51.164;16.924;2023-04-06T06:21:38;60.47;;;30.13;;
21800;SDS011;11062;51.164;16.924;2023-04-06T06:24:04;51.60;;;28.85;;
21800;SDS011;11062;51.164;16.924;2023-04-06T06:26:33;50.22;;;27.13;;
21800;SDS011;11062;51.164;16.924;2023-04-06T06:29:02;47.53;;;25.85;;
21800;SDS011;11062;51.164;16.924;2023-04-06T06:31:38;57.50;;;26.42;;
21800;SDS011;11062;51.164;16.924;2023-04-06T06:34:12;56.92;;;25.48;;
21800;SDS011;11062;51.164;16.924;2023-04-06T06:36:42;47.95;;;25.58;;
21800;SDS011;11062;51.164;16.924;2023-04-06T06:39:15;42.83;;;25.00;;
21800;SDS011;11062;51.164;16.924;2023-04-06T06:41:45;51.67;;;27.17;;
21800;SDS011;11062;51.164;16.924;2023-04-06T06:44:12;41.40;;;25.75;;
21800;SDS011;11062;51.164;16.924;2023-04-06T06:46:38;54.67;;;27.42;;
21800;SDS011;11062;51.164;16.924;2023-04-06T06:49:05;58.45;;;27.08;;
21800;SDS011;11062;51.164;16.924;2023-04-06T06:51:31;44.40;;;26.13;;
21800;SDS011;11062;51.164;16.924;2023-04-06T06:53:57;42.60;;;24.02;;
21800;SDS011;11062;51.164;16.924;2023-04-06T06:56:23;47.00;;;26.20;;
21800;SDS011;11062;51.164;16.924;2023-04-06T06:58:50;43.55;;;24.60;;
21800;SDS011;11062;51.164;16.924;2023-04-06T07:01:16;48.95;;;26.60;;
21800;SDS011;11062;51.164;16.924;2023-04-06T07:03:42;53.72;;;29.17;;
21800;SDS011;11062;51.164;16.924;2023-04-06T07:06:11;49.15;;;27.40;;
21800;SDS011;11062;51.164;16.924;2023-04-06T07:08:37;51.35;;;27.48;;
21800;SDS011;11062;51.164;16.924;2023-04-06T07:11:03;48.78;;;24.60;;
21800;SDS011;11062;51.164;16.924;2023-04-06T07:13:30;43.28;;;24.77;;
21800;SDS011;11062;51.164;16.924;2023-04-06T07:15:55;49.08;;;25.52;;
21800;SDS011;11062;51.164;16.924;2023-04-06T07:18:29;51.55;;;25.50;;
21800;SDS011;11062;51.164;16.924;2023-04-06T07:21:01;42.42;;;24.40;;
21800;SDS011;11062;51.164;16.924;2023-04-06T07:23:28;48.20;;;24.80;;
21800;SDS011;11062;51.164;16.924;2023-04-06T07:26:26;46.80;;;24.60;;
21800;SDS011;11062;51.164;16.924;2023-04-06T07:28:55;40.03;;;23.90;;
21800;SDS011;11062;51.164;16.924;2023-04-06T07:31:24;42.35;;;25.15;;
21800;SDS011;11062;51.164;16.924;2023-04-06T07:33:50;46.63;;;25.52;;
21800;SDS011;11062;51.164;16.924;2023-04-06T07:36:18;39.40;;;23.20;;
21800;SDS011;11062;51.164;16.924;2023-04-06T07:38:45;41.17;;;23.90;;
21800;SDS011;11062;51.164;16.924;2023-04-06T07:41:14;41.47;;;24.05;;
21800;SDS011;11062;51.164;16.924;2023-04-06T07:43:40;36.03;;;23.13;;
21800;SDS011;11062;51.164;16.924;2023-04-06T07:46:06;40.92;;;23.27;;
21800;SDS011;11062;51.164;16.924;2023-04-06T07:48:35;40.25;;;22.55;;
21800;SDS011;11062;51.164;16.924;2023-04-06T07:52:07;39.28;;;22.65;;
21800;SDS011;11062;51.164;16.924;2023-04-06T07:54:33;43.50;;;23.90;;
21800;SDS011;11062;51.164;16.924;2023-04-06T07:57:02;37.50;;;21.73;;
21800;SDS011;11062;51.164;16.924;2023-04-06T07:59:28;36.10;;;21.00;;
21800;SDS011;11062;51.164;16.924;2023-04-06T08:01:54;35.67;;;19.98;;
21800;SDS011;11062;51.164;16.924;2023-04-06T08:04:20;35.10;;;19.55;;
21800;SDS011;11062;51.164;16.924;2023-04-06T08:06:46;37.88;;;20.55;;
21800;SDS011;11062;51.164;16.924;2023-04-06T08:09:12;40.55;;;22.63;;
21800;SDS011;11062;51.164;16.924;2023-04-06T08:11:38;39.55;;;20.85;;
21800;SDS011;11062;51.164;16.924;2023-04-06T08:14:04;35.30;;;20.15;;
21800;SDS011;11062;51.164;16.924;2023-04-06T08:16:30;34.75;;;19.48;;
21800;SDS011;11062;51.164;16.924;2023-04-06T08:18:56;31.88;;;16.73;;
21800;SDS011;11062;51.164;16.924;2023-04-06T08:21:22;27.17;;;16.45;;
21800;SDS011;11062;51.164;16.924;2023-04-06T08:23:48;28.70;;;14.73;;
21800;SDS011;11062;51.164;16.924;2023-04-06T08:26:15;27.77;;;15.02;;
21800;SDS011;11062;51.164;16.924;2023-04-06T08:28:43;27.02;;;14.57;;
21800;SDS011;11062;51.164;16.924;2023-04-06T08:31:09;24.58;;;13.50;;
21800;SDS011;11062;51.164;16.924;2023-04-06T08:33:35;22.58;;;14.07;;
21800;SDS011;11062;51.164;16.924;2023-04-06T08:36:08;24.50;;;14.40;;
21800;SDS011;11062;51.164;16.924;2023-04-06T08:38:35;29.00;;;15.00;;
21800;SDS011;11062;51.164;16.924;2023-04-06T08:41:11;22.33;;;12.70;;
21800;SDS011;11062;51.164;16.924;2023-04-06T08:43:42;22.10;;;12.02;;
21800;SDS011;11062;51.164;16.924;2023-04-06T08:46:11;22.70;;;11.57;;
21800;SDS011;11062;51.164;16.924;2023-04-06T08:48:47;17.80;;;10.15;;
21800;SDS011;11062;51.164;16.924;2023-04-06T08:51:25;26.23;;;12.65;;
21800;SDS011;11062;51.164;16.924;2023-04-06T08:54:14;19.17;;;10.93;;
21800;SDS011;11062;51.164;16.924;2023-04-06T08:56:46;12.35;;;7.47;;
21800;SDS011;11062;51.164;16.924;2023-04-06T08:59:18;10.35;;;6.45;;
21800;SDS011;11062;51.164;16.924;2023-04-06T09:02:40;16.48;;;7.45;;
21800;SDS011;11062;51.164;16.924;2023-04-06T09:05:12;16.70;;;7.90;;
21800;SDS011;11062;51.164;16.924;2023-04-06T09:07:44;16.15;;;8.77;;
21800;SDS011;11062;51.164;16.924;2023-04-06T09:10:10;18.42;;;9.77;;
21800;SDS011;11062;51.164;16.924;2023-04-06T09:12:39;11.82;;;8.27;;
21800;SDS011;11062;51.164;16.924;2023-04-06T09:15:07;20.25;;;10.05;;
21800;SDS011;11062;51.164;16.924;2023-04-06T09:17:54;14.90;;;9.60;;
21800;SDS011;11062;51.164;16.924;2023-04-06T09:20:37;15.00;;;9.30;;
21800;SDS011;11062;51.164;16.924;2023-04-06T09:23:03;16.80;;;8.75;;
21800;SDS011;11062;51.164;16.924;2023-04-06T09:25:44;20.05;;;8.25;;
21800;SDS011;11062;51.164;16.924;2023-04-06T09:28:13;14.15;;;9.13;;
21800;SDS011;11062;51.164;16.924;2023-04-06T09:30:47;12.63;;;8.20;;
21800;SDS011;11062;51.164;16.924;2023-04-06T09:33:21;16.58;;;8.55;;
21800;SDS011;11062;51.164;16.924;2023-04-06T09:35:51;15.98;;;8.88;;
21800;SDS011;11062;51.164;16.924;2023-04-06T09:38:16;10.48;;;7.72;;
21800;SDS011;11062;51.164;16.924;2023-04-06T09:40:51;13.70;;;8.75;;
21800;SDS011;11062;51.164;16.924;2023-04-06T09:43:27;26.25;;;7.63;;
21800;SDS011;11062;51.164;16.924;2023-04-06T09:48:20;12.52;;;7.43;;
21800;SDS011;11062;51.164;16.924;2023-04-06T09:50:50;14.40;;;7.45;;
21800;SDS011;11062;51.164;16.924;2023-04-06T17:49:37;23.23;;;8.35;;
21800;SDS011;11062;51.164;16.924;2023-04-06T17:52:17;16.27;;;8.73;;
21800;SDS011;11062;51.164;16.924;2023-04-06T17:58:19;16.98;;;7.70;;
21800;SDS011;11062;51.164;16.924;2023-04-06T18:00:46;18.13;;;8.38;;
21800;SDS011;11062;51.164;16.924;2023-04-06T18:03:15;16.33;;;8.25;;
21800;SDS011;11062;51.164;16.924;2023-04-06T18:05:41;13.93;;;8.18;;
21800;SDS011;11062;51.164;16.924;2023-04-06T18:08:09;15.52;;;8.60;;
21800;SDS011;11062;51.164;16.924;2023-04-06T18:10:38;13.52;;;8.20;;
21800;SDS011;11062;51.164;16.924;2023-04-06T18:13:06;19.55;;;9.88;;
21800;SDS011;11062;51.164;16.924;2023-04-06T18:15:33;16.23;;;8.15;;
21800;SDS011;11062;51.164;16.924;2023-04-06T18:18:02;15.10;;;8.38;;
21800;SDS011;11062;51.164;16.924;2023-04-06T18:20:32;15.98;;;8.43;;
21800;SDS011;11062;51.164;16.924;2023-04-06T18:23:00;14.15;;;7.55;;
21800;SDS011;11062;51.164;16.924;2023-04-06T18:25:29;37.65;;;9.82;;
21800;SDS011;11062;51.164;16.924;2023-04-06T18:27:58;21.05;;;9.55;;
21800;SDS011;11062;51.164;16.924;2023-04-06T18:30:24;21.27;;;8.98;;
21800;SDS011;11062;51.164;16.924;2023-04-06T18:32:50;13.45;;;7.88;;
21800;SDS011;11062;51.164;16.924;2023-04-06T18:35:16;12.82;;;8.63;;
21800;SDS011;11062;51.164;16.924;2023-04-06T18:37:45;12.40;;;8.00;;
21800;SDS011;11062;51.164;16.924;2023-04-06T18:42:57;12.18;;;7.90;;
21800;SDS011;11062;51.164;16.924;2023-04-06T18:45:23;15.85;;;8.93;;
21800;SDS011;11062;51.164;16.924;2023-04-06T18:47:50;13.50;;;7.88;;
21800;SDS011;11062;51.164;16.924;2023-04-06T18:50:16;15.30;;;7.30;;
21800;SDS011;11062;51.164;16.924;2023-04-06T18:52:42;17.30;;;8.02;;
21800;SDS011;11062;51.164;16.924;2023-04-06T18:55:11;13.02;;;7.80;;
21800;SDS011;11062;51.164;16.924;2023-04-06T18:57:37;19.88;;;9.15;;
21800;SDS011;11062;51.164;16.924;2023-04-06T19:00:04;14.70;;;8.20;;
21800;SDS011;11062;51.164;16.924;2023-04-06T19:02:33;16.98;;;9.18;;
21800;SDS011;11062;51.164;16.924;2023-04-06T19:05:02;16.42;;;9.20;;
21800;SDS011;11062;51.164;16.924;2023-04-06T19:07:28;22.75;;;9.85;;
21800;SDS011;11062;51.164;16.924;2023-04-06T19:09:55;16.13;;;8.93;;
21800;SDS011;11062;51.164;16.924;2023-04-06T19:12:25;17.77;;;9.43;;
21800;SDS011;11062;51.164;16.924;2023-04-06T19:14:51;17.27;;;9.45;;
21800;SDS011;11062;51.164;16.924;2023-04-06T19:17:17;13.27;;;8.90;;
21800;SDS011;11062;51.164;16.924;2023-04-06T19:19:47;18.00;;;8.95;;
21800;SDS011;11062;51.164;16.924;2023-04-06T19:22:15;16.48;;;8.57;;
21800;SDS011;11062;51.164;16.924;2023-04-06T19:24:41;15.75;;;9.13;;
21800;SDS011;11062;51.164;16.924;2023-04-06T19:27:13;16.98;;;9.27;;
21800;SDS011;11062;51.164;16.924;2023-04-06T19:29:41;19.48;;;10.07;;
21800;SDS011;11062;51.164;16.924;2023-04-06T19:32:07;22.30;;;10.35;;
21800;SDS011;11062;51.164;16.924;2023-04-06T19:34:36;15.65;;;9.95;;
21800;SDS011;11062;51.164;16.924;2023-04-06T19:37:03;24.40;;;10.07;;
21800;SDS011;11062;51.164;16.924;2023-04-06T19:39:30;15.65;;;9.20;;
21800;SDS011;11062;51.164;16.924;2023-04-06T19:41:58;21.15;;;10.90;;
21800;SDS011;11062;51.164;16.924;2023-04-06T19:44:24;22.27;;;11.55;;
21800;SDS011;11062;51.164;16.924;2023-04-06T19:46:50;21.52;;;13.05;;
21800;SDS011;11062;51.164;16.924;2023-04-06T19:49:17;21.80;;;11.90;;
21800;SDS011;11062;51.164;16.924;2023-04-06T19:51:45;21.45;;;12.27;;
21800;SDS011;11062;51.164;16.924;2023-04-06T19:54:11;20.48;;;12.27;;
21800;SDS011;11062;51.164;16.924;2023-04-06T19:56:40;20.77;;;11.95;;
21800;SDS011;11062;51.164;16.924;2023-04-06T19:59:06;21.27;;;12.27;;
21800;SDS011;11062;51.164;16.924;2023-04-06T20:01:35;24.83;;;11.30;;
21800;SDS011;11062;51.164;16.924;2023-04-06T20:04:01;23.55;;;12.73;;
21800;SDS011;11062;51.164;16.924;2023-04-06T20:06:29;26.95;;;13.57;;
21800;SDS011;11062;51.164;16.924;2023-04-06T20:09:05;29.30;;;13.35;;
21800;SDS011;11062;51.164;16.924;2023-04-06T20:11:32;40.63;;;16.40;;
21800;SDS011;11062;51.164;16.924;2023-04-06T20:14:04;30.02;;;16.05;;
21800;SDS011;11062;51.164;16.924;2023-04-06T20:16:35;39.85;;;19.40;;
21800;SDS011;11062;51.164;16.924;2023-04-06T20:19:01;38.90;;;20.10;;
21800;SDS011;11062;51.164;16.924;2023-04-06T20:21:27;44.53;;;21.35;;
21800;SDS011;11062;51.164;16.924;2023-04-06T20:23:53;43.00;;;21.58;;
21800;SDS011;11062;51.164;16.924;2023-04-06T20:26:20;38.58;;;20.58;;
21800;SDS011;11062;51.164;16.924;2023-04-06T20:28:51;37.92;;;18.25;;
21800;SDS011;11062;51.164;16.924;2023-04-06T20:31:17;36.75;;;17.05;;
21800;SDS011;11062;51.164;16.924;2023-04-06T20:33:43;29.48;;;15.63;;
21800;SDS011;11062;51.164;16.924;2023-04-06T20:36:11;40.47;;;16.90;;
21800;SDS011;11062;51.164;16.924;2023-04-06T20:38:37;28.48;;;16.05;;
21800;SDS011;11062;51.164;16.924;2023-04-06T20:41:03;33.58;;;16.95;;
21800;SDS011;11062;51.164;16.924;2023-04-06T20:43:34;36.40;;;17.27;;
21800;SDS011;11062;51.164;16.924;2023-04-06T20:46:13;38.38;;;17.73;;
21800;SDS011;11062;51.164;16.924;2023-04-06T20:48:42;32.72;;;17.17;;
21800;SDS011;11062;51.164;16.924;2023-04-06T20:51:20;32.58;;;16.23;;
21800;SDS011;11062;51.164;16.924;2023-04-06T20:53:53;36.20;;;17.88;;
21800;SDS011;11062;51.164;16.924;2023-04-06T20:56:20;30.90;;;17.17;;
21800;SDS011;11062;51.164;16.924;2023-04-06T20:58:46;34.40;;;17.83;;
21800;SDS011;11062;51.164;16.924;2023-04-06T21:01:13;37.92;;;18.10;;
21800;SDS011;11062;51.164;16.924;2023-04-06T21:03:41;35.55;;;16.70;;
21800;SDS011;11062;51.164;16.924;2023-04-06T21:06:07;37.30;;;19.73;;
21800;SDS011;11062;51.164;16.924;2023-04-06T21:08:36;37.38;;;20.08;;
21800;SDS011;11062;51.164;16.924;2023-04-06T21:11:05;41.47;;;19.58;;
21800;SDS011;11062;51.164;16.924;2023-04-06T21:13:31;49.30;;;22.17;;
21800;SDS011;11062;51.164;16.924;2023-04-06T21:16:03;45.03;;;21.52;;
21800;SDS011;11062;51.164;16.924;2023-04-06T21:18:30;47.78;;;23.05;;
21800;SDS011;11062;51.164;16.924;2023-04-06T21:20:56;51.53;;;25.58;;
21800;SDS011;11062;51.164;16.924;2023-04-06T21:23:22;57.30;;;25.10;;
21800;SDS011;11062;51.164;16.924;2023-04-06T21:25:48;50.65;;;25.98;;
21800;SDS011;11062;51.164;16.924;2023-04-06T21:28:26;43.92;;;22.95;;
21800;SDS011;11062;51.164;16.924;2023-04-06T21:30:55;47.17;;;20.85;;
21800;SDS011;11062;51.164;16.924;2023-04-06T21:33:24;38.10;;;21.55;;
21800;SDS011;11062;51.164;16.924;2023-04-06T21:35:55;49.90;;;22.92;;
21800;SDS011;11062;51.164;16.924;2023-04-06T21:38:21;49.63;;;25.83;;
21800;SDS011;11062;51.164;16.924;2023-04-06T21:40:54;53.25;;;24.80;;
21800;SDS011;11062;51.164;16.924;2023-04-06T21:43:23;46.20;;;22.95;;
21800;SDS011;11062;51.164;16.924;2023-04-06T21:45:49;45.35;;;21.15;;
21800;SDS011;11062;51.164;16.924;2023-04-06T21:48:18;41.92;;;20.02;;
21800;SDS011;11062;51.164;16.924;2023-04-06T21:50:44;34.35;;;18.00;;
21800;SDS011;11062;51.164;16.924;2023-04-06T21:53:13;37.65;;;18.73;;
21800;SDS011;11062;51.164;16.924;2023-04-06T21:55:45;38.90;;;18.50;;
21800;SDS011;11062;51.164;16.924;2023-04-06T21:58:12;30.90;;;18.45;;
21800;SDS011;11062;51.164;16.924;2023-04-06T22:00:41;37.60;;;20.27;;
21800;SDS011;11062;51.164;16.924;2023-04-06T22:03:10;38.15;;;19.52;;
21800;SDS011;11062;51.164;16.924;2023-04-06T22:05:42;36.33;;;18.83;;
21800;SDS011;11062;51.164;16.924;2023-04-06T22:08:11;39.55;;;20.10;;
21800;SDS011;11062;51.164;16.924;2023-04-06T22:10:37;36.22;;;18.83;;
21800;SDS011;11062;51.164;16.924;2023-04-06T22:13:06;36.33;;;17.67;;
21800;SDS011;11062;51.164;16.924;2023-04-06T22:15:32;36.67;;;17.13;;
21800;SDS011;11062;51.164;16.924;2023-04-06T22:17:58;41.38;;;18.13;;
21800;SDS011;11062;51.164;16.924;2023-04-06T22:20:27;31.58;;;17.13;;
21800;SDS011;11062;51.164;16.924;2023-04-06T22:22:53;31.98;;;15.80;;
21800;SDS011;11062;51.164;16.924;2023-04-06T22:25:19;29.27;;;16.77;;
21800;SDS011;11062;51.164;16.924;2023-04-06T22:27:45;31.48;;;15.77;;
21800;SDS011;11062;51.164;16.924;2023-04-06T22:30:11;42.58;;;18.13;;
21800;SDS011;11062;51.164;16.924;2023-04-06T22:32:37;37.28;;;17.63;;
21800;SDS011;11062;51.164;16.924;2023-04-06T22:35:03;37.15;;;18.45;;